Time;durP1;ratioP1;P1;durP2;ratioP2;P2;SDS_P1;SDS_P2;PMS_P1;PMS_P2;Temp;Humidity;BMP_temperature;BMP_pressure;BME280_temperature;BME280_humidity;BME280_pressure;Samples;Min_cycle;Max_cycle;Signal;HPM_P1;HPM_P2
2022/12/22 03:27:49;;;;;;;3.13;2.93;;;;;;;8.80;100.00;96336.94;5010647;28;20266;-59
2022/12/22 03:30:15;;;;;;;2.70;2.50;;;;;;;8.79;100.00;96339.72;5003427;28;20208;-58
2022/12/22 03:32:44;;;;;;;4.67;2.87;;;;;;;8.81;100.00;96335.16;5003192;28;20210;-59
2022/12/22 03:35:11;;;;;;;3.77;2.70;;;;;;;8.70;100.00;96336.13;5003315;28;20216;-59
2022/12/22 03:37:37;;;;;;;2.60;2.40;;;;;;;8.73;100.00;96335.84;5004010;28;20216;-59
2022/12/22 03:40:04;;;;;;;3.00;2.80;;;;;;;8.74;100.00;96337.50;5003766;28;20208;-58
2022/12/22 03:48:00;;;;;;;4.13;2.83;;;;;;;8.79;100.00;96342.34;5003342;28;20208;-59
2022/12/22 03:50:27;;;;;;;3.83;3.40;;;;;;;8.77;100.00;96347.78;5003441;28;20209;-58
2022/12/22 03:52:53;;;;;;;2.87;2.70;;;;;;;8.78;100.00;96336.28;5002971;28;20213;-58
2022/12/22 03:55:19;;;;;;;3.33;3.13;;;;;;;8.76;100.00;96337.34;5002750;28;20212;-59
2022/12/22 03:57:46;;;;;;;2.80;2.60;;;;;;;8.79;100.00;96323.88;5002728;28;21459;-58
2022/12/22 04:00:13;;;;;;;3.00;2.80;;;;;;;8.79;100.00;96330.00;5003364;28;20652;-58
2022/12/22 04:02:40;;;;;;;2.60;2.50;;;;;;;8.77;100.00;96331.97;5003258;28;20228;-59
2022/12/22 04:05:09;;;;;;;3.00;2.80;;;;;;;8.73;100.00;96335.84;5002924;28;20213;-59
2022/12/22 04:07:35;;;;;;;3.20;3.00;;;;;;;8.70;100.00;96330.84;5002798;28;20228;-59
2022/12/22 04:12:53;;;;;;;2.70;2.50;;;;;;;8.68;100.00;96330.13;4992614;28;20176;-58
2022/12/22 04:15:20;;;;;;;2.93;2.73;;;;;;;8.64;100.00;96322.69;5025628;28;20188;-58
2022/12/22 04:17:46;;;;;;;2.70;2.50;;;;;;;8.57;100.00;96316.28;5018837;28;20197;-58
2022/12/22 04:20:15;;;;;;;3.50;2.90;;;;;;;8.57;100.00;96306.59;5004344;28;20228;-58
2022/12/22 04:22:41;;;;;;;2.57;2.37;;;;;;;8.57;100.00;96295.22;5002005;28;20229;-58
2022/12/22 04:25:09;;;;;;;2.80;2.60;;;;;;;8.49;100.00;96293.25;5001926;28;20629;-59
2022/12/22 04:27:35;;;;;;;3.13;2.93;;;;;;;8.48;100.00;96294.22;5002441;28;20236;-58
2022/12/22 04:30:02;;;;;;;2.30;2.20;;;;;;;8.48;100.00;96294.22;5002266;28;20607;-58
2022/12/22 04:32:28;;;;;;;3.00;2.80;;;;;;;8.47;100.00;96298.66;5002216;28;20212;-58
2022/12/22 04:34:54;;;;;;;2.77;2.33;;;;;;;8.45;100.00;96295.34;5002760;28;20220;-59
2022/12/22 04:37:22;;;;;;;3.23;3.03;;;;;;;8.44;100.00;96298.09;5002521;28;20204;-59
2022/12/22 04:39:49;;;;;;;3.20;3.00;;;;;;;8.46;100.00;96293.53;5001898;28;20209;-59
2022/12/22 04:42:15;;;;;;;2.70;2.60;;;;;;;8.45;100.00;96283.97;5002017;28;20539;-58
2022/12/22 04:44:42;;;;;;;3.37;3.10;;;;;;;8.40;100.00;96291.44;5002040;28;20244;-59
2022/12/22 04:47:08;;;;;;;4.63;3.00;;;;;;;8.38;100.00;96294.22;5002088;28;20224;-58
2022/12/22 04:49:35;;;;;;;3.33;2.93;;;;;;;8.37;100.00;96291.72;5001629;28;20212;-59
2022/12/22 04:52:01;;;;;;;2.80;2.60;;;;;;;8.39;100.00;96280.09;5002544;28;20200;-58
2022/12/22 04:54:29;;;;;;;2.93;2.73;;;;;;;8.41;100.00;96287.84;5001521;28;20201;-59
2022/12/22 04:56:55;;;;;;;3.20;2.90;;;;;;;8.39;100.00;96295.06;5001479;28;20200;-59
2022/12/22 04:59:23;;;;;;;3.67;3.00;;;;;;;8.34;100.00;96297.28;5001618;28;20212;-57
2022/12/22 05:01:50;;;;;;;3.27;2.77;;;;;;;8.25;100.00;96292.81;5002065;28;20220;-58
2022/12/22 05:04:16;;;;;;;2.77;2.57;;;;;;;8.22;100.00;96298.34;5002243;28;20220;-59
2022/12/22 05:06:42;;;;;;;2.63;2.43;;;;;;;8.13;100.00;96293.88;5001837;28;20558;-58
2022/12/22 05:09:09;;;;;;;2.87;2.67;;;;;;;8.06;100.00;96295.41;5001225;28;20212;-59
2022/12/22 05:11:39;;;;;;;3.30;3.00;;;;;;;7.94;100.00;96298.16;5001667;28;20204;-58
2022/12/22 05:14:05;;;;;;;4.37;3.50;;;;;;;7.88;100.00;96301.34;5001392;28;20214;-59
2022/12/22 05:16:32;;;;;;;3.20;2.90;;;;;;;7.82;100.00;96301.03;5001338;28;20197;-58
2022/12/22 05:18:58;;;;;;;3.73;2.90;;;;;;;7.74;100.00;96314.88;5001523;28;20207;-59
2022/12/22 05:21:25;;;;;;;2.73;2.53;;;;;;;7.71;100.00;96330.09;5001519;28;20206;-58
2022/12/22 05:23:51;;;;;;;4.50;2.83;;;;;;;7.69;100.00;96332.00;5000729;28;20217;-59
2022/12/22 05:26:18;;;;;;;3.53;2.77;;;;;;;7.65;100.00;96312.22;5000856;28;20676;-59
2022/12/22 05:28:47;;;;;;;3.13;2.93;;;;;;;7.82;100.00;96312.41;5000286;28;20219;-59
2022/12/22 05:31:16;;;;;;;2.97;2.77;;;;;;;7.92;100.00;96313.25;4999361;28;20688;-59
2022/12/22 05:33:42;;;;;;;3.20;3.00;;;;;;;8.03;100.00;96320.22;5000187;28;20204;-59
2022/12/22 05:36:09;;;;;;;3.20;3.00;;;;;;;8.16;100.00;96310.25;4998404;28;20641;-58
2022/12/22 05:38:35;;;;;;;2.97;2.77;;;;;;;8.27;100.00;96312.75;5000807;28;20216;-59
2022/12/22 05:41:02;;;;;;;4.33;2.73;;;;;;;8.33;100.00;96316.66;5000683;28;20295;-59
2022/12/22 05:43:28;;;;;;;2.70;2.60;;;;;;;8.36;100.00;96311.16;5001187;28;20252;-59
2022/12/22 05:45:57;;;;;;;4.23;3.20;;;;;;;8.37;100.00;96305.72;5000762;28;20209;-59
2022/12/22 05:48:23;;;;;;;2.60;2.40;;;;;;;8.45;100.00;96312.94;5001353;28;20225;-59
2022/12/22 05:50:50;;;;;;;2.77;2.53;;;;;;;8.46;100.00;96322.53;5001063;28;20205;-59
2022/12/22 05:53:16;;;;;;;2.50;2.30;;;;;;;8.49;100.00;96311.72;5001923;28;20205;-61
2022/12/22 05:55:43;;;;;;;3.17;2.60;;;;;;;8.49;100.00;96309.91;5001191;28;20216;-57
2022/12/22 05:58:09;;;;;;;4.33;2.50;;;;;;;8.55;100.00;96310.31;5004176;28;20228;-56
2022/12/22 06:00:36;;;;;;;2.67;2.40;;;;;;;8.60;100.00;96318.66;5003493;28;20213;-66
2022/12/22 06:03:04;;;;;;;3.57;2.70;;;;;;;8.74;100.00;96332.25;5002918;28;20628;-58
2022/12/22 06:05:30;;;;;;;3.17;2.40;;;;;;;8.87;100.00;96337.22;5004362;28;20206;-57
2022/12/22 06:07:57;;;;;;;2.83;2.43;;;;;;;9.04;100.00;96328.59;5002760;28;20236;-59
2022/12/22 06:10:23;;;;;;;2.90;2.20;;;;;;;9.08;100.00;96339.69;5009342;28;20209;-57
2022/12/22 06:12:50;;;;;;;2.90;2.17;;;;;;;9.13;100.00;96338.31;5004600;28;20208;-63
2022/12/22 06:15:17;;;;;;;4.10;2.23;;;;;;;9.20;100.00;96322.75;5003717;28;20289;-58
2022/12/22 06:17:43;;;;;;;4.20;2.47;;;;;;;9.25;100.00;96328.41;5002381;28;20200;-58
2022/12/22 06:20:13;;;;;;;2.47;2.10;;;;;;;9.25;100.00;96318.69;5002405;28;20235;-58
2022/12/22 06:22:40;;;;;;;2.30;2.10;;;;;;;9.34;100.00;96324.94;5003550;28;20202;-59
2022/12/22 06:25:07;;;;;;;4.13;2.13;;;;;;;9.44;100.00;96331.84;5003063;28;20200;-59
2022/12/22 06:27:33;;;;;;;2.27;1.90;;;;;;;9.42;100.00;96322.41;5002452;28;20224;-59
2022/12/22 06:30:00;;;;;;;3.50;1.90;;;;;;;9.45;100.00;96322.13;5018177;28;20231;-58
2022/12/22 06:32:26;;;;;;;1.80;1.70;;;;;;;9.39;100.00;96312.13;5019837;28;20205;-58
2022/12/22 06:34:53;;;;;;;2.43;1.80;;;;;;;9.43;100.00;96301.13;5017896;28;20211;-57
2022/12/22 06:37:20;;;;;;;2.37;1.87;;;;;;;9.40;100.00;96309.34;5001876;28;20660;-59
2022/12/22 06:39:47;;;;;;;5.83;2.60;;;;;;;9.40;100.00;96298.78;5002271;28;20219;-59
2022/12/22 06:44:57;;;;;;;2.17;1.67;;;;;;;9.51;100.00;96305.69;5005617;28;20781;-60
2022/12/22 06:47:23;;;;;;;1.50;1.40;;;;;;;9.41;100.00;96303.09;5002933;28;20221;-61
2022/12/22 06:49:51;;;;;;;2.60;1.80;;;;;;;9.45;100.00;96311.56;5013033;28;20201;-60
2022/12/22 06:52:17;;;;;;;2.27;1.63;;;;;;;9.46;100.00;96313.19;5011931;28;20201;-59
2022/12/22 06:54:45;;;;;;;3.50;1.90;;;;;;;9.41;100.00;96305.75;5016025;28;20202;-58
2022/12/22 06:57:11;;;;;;;2.83;1.50;;;;;;;9.52;100.00;96296.81;5017730;28;20213;-58
2022/12/22 06:59:38;;;;;;;3.43;1.10;;;;;;;9.52;100.00;96307.38;5015447;28;20205;-59
2022/12/22 07:02:04;;;;;;;2.40;1.50;;;;;;;9.66;100.00;96312.19;5011058;28;20201;-58
2022/12/22 07:04:31;;;;;;;1.40;1.10;;;;;;;9.55;100.00;96308.88;5011912;28;20212;-60
2022/12/22 07:06:57;;;;;;;2.60;1.37;;;;;;;9.61;100.00;96321.50;5013325;28;20228;-59
2022/12/22 07:09:24;;;;;;;1.20;1.10;;;;;;;9.68;100.00;96317.28;4995637;28;20193;-59
2022/12/22 07:11:52;;;;;;;2.30;1.20;;;;;;;9.70;100.00;96316.19;4995367;28;20224;-59
2022/12/22 07:14:18;;;;;;;2.03;1.20;;;;;;;9.75;100.00;96311.28;4994894;28;20205;-58
2022/12/22 07:16:45;;;;;;;3.80;2.30;;;;;;;9.76;100.00;96309.50;4995308;28;20213;-59
2022/12/22 07:19:12;;;;;;;2.63;1.23;;;;;;;9.83;100.00;96321.13;4994699;28;20210;-60
2022/12/22 07:21:38;;;;;;;2.00;1.40;;;;;;;9.80;100.00;96322.25;4994702;28;20217;-60
2022/12/22 07:24:06;;;;;;;1.10;1.10;;;;;;;9.89;100.00;96331.94;4993930;28;20193;-59
2022/12/22 07:26:32;;;;;;;2.10;1.20;;;;;;;9.85;100.00;96338.47;4994419;28;20557;-59
2022/12/22 07:29:00;;;;;;;4.47;1.77;;;;;;;9.97;100.00;96341.78;4994778;28;20659;-59
2022/12/22 07:31:26;;;;;;;1.80;1.03;;;;;;;9.94;100.00;96347.34;4996736;28;20237;-59
2022/12/22 07:33:53;;;;;;;1.80;1.10;;;;;;;10.00;100.00;96342.31;4996230;28;20197;-59
2022/12/22 07:36:20;;;;;;;2.97;1.37;;;;;;;10.00;100.00;96354.69;4995580;28;20201;-59
2022/12/22 07:38:49;;;;;;;1.67;1.20;;;;;;;10.06;100.00;96356.72;4995958;28;20209;-59
2022/12/22 07:44:03;;;;;;;3.53;1.13;;;;;;;10.12;100.00;96339.47;4994121;28;20260;-60
2022/12/22 07:46:32;;;;;;;2.63;1.30;;;;;;;10.10;100.00;96326.41;4995145;28;21392;-59
2022/12/22 07:51:43;;;;;;;2.33;1.40;;;;;;;10.14;100.00;96325.16;4994394;28;20344;-59
2022/12/22 07:54:11;;;;;;;3.73;1.20;;;;;;;10.11;100.00;96314.03;4993789;28;20202;-59
2022/12/22 07:56:39;;;;;;;1.57;1.17;;;;;;;10.17;100.00;96305.53;4994321;28;20642;-58
2022/12/22 07:59:07;;;;;;;2.53;1.17;;;;;;;10.23;100.00;96305.78;4994579;28;20209;-58
2022/12/22 08:01:34;;;;;;;4.70;1.20;;;;;;;10.18;100.00;96305.38;4994491;28;20201;-59
2022/12/22 08:04:00;;;;;;;1.37;1.00;;;;;;;10.25;100.00;96306.47;4993888;28;20215;-59
2022/12/22 08:06:27;;;;;;;2.30;1.00;;;;;;;10.36;100.00;96318.63;4993448;28;20201;-58
2022/12/22 08:08:53;;;;;;;1.47;0.90;;;;;;;10.38;100.00;96335.19;4992936;28;20313;-59
2022/12/22 08:11:20;;;;;;;1.60;1.20;;;;;;;10.46;100.00;96348.47;4993433;28;20221;-59
2022/12/22 08:13:48;;;;;;;3.20;1.33;;;;;;;10.47;100.00;96352.78;4993818;28;20213;-59
2022/12/22 08:16:18;;;;;;;3.60;1.37;;;;;;;10.62;97.63;96372.44;4993587;28;20224;-59
2022/12/22 08:18:44;;;;;;;1.40;1.07;;;;;;;10.72;96.73;96375.84;4993345;28;20209;-59
2022/12/22 08:21:11;;;;;;;2.93;1.30;;;;;;;10.87;92.93;96361.13;4993294;28;20209;-59
2022/12/22 08:23:38;;;;;;;2.43;1.03;;;;;;;10.97;93.65;96366.31;4992896;28;20569;-59
2022/12/22 08:26:09;;;;;;;1.13;0.87;;;;;;;11.19;90.28;96354.44;4993693;28;20209;-59
2022/12/22 08:28:40;;;;;;;2.30;1.03;;;;;;;11.26;90.42;96356.31;4993207;28;20209;-59
2022/12/22 08:31:07;;;;;;;1.20;0.90;;;;;;;11.36;88.59;96346.47;4993349;28;20197;-57
2022/12/22 08:33:35;;;;;;;1.83;0.90;;;;;;;11.32;89.96;96370.75;4993038;28;20210;-59
2022/12/22 08:36:02;;;;;;;1.73;1.07;;;;;;;11.41;88.04;96353.91;4993150;28;20197;-58
2022/12/22 08:38:31;;;;;;;2.50;1.00;;;;;;;11.49;87.92;96393.69;4993264;28;20205;-59
2022/12/22 08:40:58;;;;;;;2.00;0.83;;;;;;;11.55;88.11;96366.59;4992396;28;20256;-59
2022/12/22 08:43:25;;;;;;;4.67;1.50;;;;;;;11.68;84.00;96351.13;4994922;28;20236;-59
2022/12/22 08:45:51;;;;;;;5.57;1.60;;;;;;;11.81;84.04;96387.81;5002492;28;20202;-59
2022/12/22 08:48:19;;;;;;;3.27;1.30;;;;;;;11.96;83.33;96368.53;5002545;28;20657;-58
2022/12/22 08:50:47;;;;;;;2.63;1.43;;;;;;;12.04;82.89;96383.66;5007605;28;20215;-58
2022/12/22 08:53:13;;;;;;;2.43;1.07;;;;;;;12.06;82.91;96376.34;5005919;28;20749;-59
2022/12/22 08:55:40;;;;;;;4.27;1.77;;;;;;;12.08;81.78;96368.25;5007052;28;20218;-58
2022/12/22 08:58:06;;;;;;;5.10;1.90;;;;;;;12.11;83.15;96363.47;5003983;28;20204;-59
2022/12/22 09:00:33;;;;;;;2.90;1.53;;;;;;;12.30;81.59;96373.81;5002801;28;20285;-58
2022/12/22 09:02:59;;;;;;;4.13;1.70;;;;;;;12.33;80.87;96372.66;5000975;28;20613;-58
2022/12/22 09:05:26;;;;;;;5.43;1.90;;;;;;;12.38;78.96;96375.66;5001946;28;20197;-57
2022/12/22 09:07:55;;;;;;;4.57;1.73;;;;;;;12.37;79.88;96364.22;5009299;28;20209;-58
2022/12/22 09:10:21;;;;;;;5.27;1.77;;;;;;;12.48;79.84;96384.31;5024775;28;20197;-59
2022/12/22 09:12:50;;;;;;;9.17;1.87;;;;;;;12.60;79.21;96361.81;5027989;28;20218;-59
2022/12/22 09:15:17;;;;;;;3.93;1.63;;;;;;;12.65;78.11;96386.00;5015512;28;20504;-59
2022/12/22 09:17:43;;;;;;;2.40;1.60;;;;;;;12.60;78.03;96377.72;5002870;28;20265;-59
2022/12/22 09:20:10;;;;;;;4.93;1.60;;;;;;;12.48;78.48;96377.19;5002097;28;20212;-58
2022/12/22 09:22:37;;;;;;;3.13;1.47;;;;;;;12.42;78.18;96398.22;5002165;28;20197;-58
2022/12/22 09:25:08;;;;;;;7.13;1.90;;;;;;;12.40;78.30;96392.22;5001563;28;20196;-58
2022/12/22 09:27:34;;;;;;;4.47;1.77;;;;;;;12.34;79.47;96406.13;5001962;28;20204;-60
2022/12/22 09:30:01;;;;;;;4.67;1.87;;;;;;;12.22;80.61;96410.06;5001707;28;20204;-59
2022/12/22 09:32:27;;;;;;;4.27;1.60;;;;;;;12.25;79.99;96410.59;5001488;28;20769;-59
2022/12/22 09:34:54;;;;;;;3.87;1.57;;;;;;;12.23;80.11;96414.38;5001879;28;20212;-59
2022/12/22 09:37:20;;;;;;;2.43;1.17;;;;;;;12.24;80.39;96426.63;5001258;28;20209;-59
2022/12/22 09:39:48;;;;;;;3.93;1.97;;;;;;;12.20;82.90;96404.91;5001490;28;20213;-58
2022/12/22 09:42:19;;;;;;;5.93;1.80;;;;;;;12.07;81.75;96411.66;5001807;28;20208;-59
2022/12/22 09:44:49;;;;;;;4.10;1.77;;;;;;;12.08;81.99;96415.97;4993209;28;20240;-59
2022/12/22 09:47:19;;;;;;;3.60;1.60;;;;;;;12.10;82.12;96414.81;4992257;28;20210;-59
2022/12/22 09:49:46;;;;;;;5.53;1.73;;;;;;;12.05;83.16;96426.84;4991620;28;20271;-58
2022/12/22 09:52:23;;;;;;;6.23;2.20;;;;;;;12.08;83.86;96426.56;4991760;28;20741;-58
2022/12/22 09:54:49;;;;;;;6.00;1.73;;;;;;;12.07;84.89;96427.56;4991478;28;20208;-58
2022/12/22 09:57:17;;;;;;;4.97;1.90;;;;;;;12.01;83.86;96423.69;4991461;28;20209;-59
2022/12/22 09:59:44;;;;;;;4.37;1.53;;;;;;;12.03;85.96;96447.41;4991500;28;20197;-59
2022/12/22 10:02:20;;;;;;;2.97;1.83;;;;;;;11.89;86.90;96451.47;4992019;28;20549;-58
2022/12/22 10:04:56;;;;;;;4.17;1.67;;;;;;;11.87;86.53;96441.00;4991877;28;20280;-59
2022/12/22 10:07:27;;;;;;;6.53;1.70;;;;;;;11.84;86.18;96445.78;4991931;28;20216;-59
2022/12/22 10:09:53;;;;;;;5.90;1.77;;;;;;;11.84;88.63;96430.72;4991042;28;20665;-59
2022/12/22 10:12:23;;;;;;;4.97;2.00;;;;;;;11.87;87.51;96425.09;4991555;28;20220;-58
2022/12/22 10:14:50;;;;;;;5.23;2.33;;;;;;;11.77;89.52;96434.97;4993457;28;20219;-57
2022/12/22 10:17:20;;;;;;;4.63;2.10;;;;;;;11.67;88.96;96426.28;4995460;28;20201;-59
2022/12/22 10:19:47;;;;;;;2.93;1.77;;;;;;;11.67;88.65;96439.53;4995153;28;20205;-58
2022/12/22 10:22:29;;;;;;;6.87;1.97;;;;;;;11.75;88.70;96446.72;4995006;28;20255;-59
2022/12/22 10:24:56;;;;;;;5.47;1.57;;;;;;;11.77;89.09;96436.78;4994713;28;20208;-59
2022/12/22 10:27:27;;;;;;;6.80;2.10;;;;;;;11.86;88.99;96427.94;4994873;28;20208;-59
2022/12/22 10:29:53;;;;;;;3.33;1.37;;;;;;;11.88;89.41;96424.13;4995644;28;20221;-58
2022/12/22 10:32:21;;;;;;;4.73;1.73;;;;;;;11.78;90.32;96425.22;4995945;28;20209;-58
2022/12/22 10:35:02;;;;;;;4.07;1.30;;;;;;;11.90;91.33;96403.59;4995268;28;20219;-58
2022/12/22 10:37:32;;;;;;;4.90;1.70;;;;;;;12.22;89.75;96407.44;4995262;28;20633;-59
2022/12/22 10:39:58;;;;;;;5.23;1.50;;;;;;;12.60;87.97;96412.22;4994999;28;20300;-60
2022/12/22 10:42:26;;;;;;;5.10;1.87;;;;;;;12.76;84.49;96395.50;4995496;28;20215;-59
2022/12/22 10:44:53;;;;;;;6.13;1.80;;;;;;;12.90;83.88;96393.03;4994799;28;20240;-58
2022/12/22 10:47:22;;;;;;;5.43;1.83;;;;;;;13.06;83.72;96386.09;4995663;28;20211;-58
2022/12/22 10:49:50;;;;;;;7.40;2.37;;;;;;;13.21;82.46;96389.81;4995062;28;20224;-58
2022/12/22 10:52:19;;;;;;;7.83;2.27;;;;;;;13.24;81.15;96371.72;4994217;28;20205;-59
2022/12/22 10:54:46;;;;;;;4.80;1.70;;;;;;;13.24;81.12;96362.91;4994700;28;20216;-59
2022/12/22 10:57:28;;;;;;;3.50;1.50;;;;;;;13.09;82.00;96356.56;4994920;28;20244;-58
2022/12/22 10:59:56;;;;;;;5.30;1.67;;;;;;;13.08;81.99;96370.81;4994412;28;20193;-59
2022/12/22 11:02:29;;;;;;;4.07;1.90;;;;;;;12.96;82.16;96368.50;4994814;28;20292;-58
2022/12/22 11:05:03;;;;;;;4.20;1.93;;;;;;;12.83;82.34;96354.03;4994864;28;20226;-58
2022/12/22 11:07:32;;;;;;;5.37;2.30;;;;;;;12.74;82.32;96353.22;4995549;28;20201;-58
2022/12/22 11:09:59;;;;;;;4.27;1.80;;;;;;;12.68;82.14;96356.50;4995179;28;20225;-58
2022/12/22 11:12:35;;;;;;;4.60;1.70;;;;;;;12.60;82.81;96353.84;4995129;28;20708;-58
2022/12/22 11:15:06;;;;;;;4.90;1.73;;;;;;;12.62;83.53;96343.91;4995320;28;20205;-59
2022/12/22 11:17:37;;;;;;;8.87;2.47;;;;;;;12.68;80.69;96345.88;4995516;28;21450;-59
2022/12/22 11:20:25;;;;;;;6.17;2.10;;;;;;;12.82;78.23;96342.59;4995178;28;20200;-58
2022/12/22 11:22:57;;;;;;;5.63;1.83;;;;;;;12.91;79.74;96349.59;4996147;28;20231;-58
2022/12/22 11:25:30;;;;;;;4.23;1.73;;;;;;;12.94;77.68;96345.75;4993729;28;20201;-58
2022/12/22 11:28:11;;;;;;;3.83;1.80;;;;;;;13.00;75.27;96323.06;4993778;28;20205;-58
2022/12/22 11:30:47;;;;;;;5.43;2.03;;;;;;;13.06;75.29;96317.06;4994521;28;20204;-58
2022/12/22 11:33:28;;;;;;;5.63;2.40;;;;;;;13.02;75.55;96339.63;4995290;28;20288;-58
2022/12/22 11:35:57;;;;;;;4.87;2.00;;;;;;;13.13;75.97;96332.22;5009422;28;20211;-58
2022/12/22 11:38:38;;;;;;;6.17;1.80;;;;;;;13.16;74.96;96339.00;5017463;28;20244;-58
2022/12/22 11:41:10;;;;;;;4.13;1.97;;;;;;;13.12;74.71;96343.81;5018986;28;20190;-58
2022/12/22 11:43:49;;;;;;;7.03;2.23;;;;;;;12.99;76.94;96351.41;4998728;28;20221;-58
2022/12/22 11:46:22;;;;;;;6.53;2.10;;;;;;;12.90;76.61;96350.56;4994914;28;20197;-58
2022/12/22 11:49:13;;;;;;;5.27;2.03;;;;;;;12.84;77.94;96358.38;4995036;28;20213;-57
2022/12/22 11:52:05;;;;;;;5.20;1.80;;;;;;;12.77;78.43;96360.00;4995368;28;20197;-58
2022/12/22 11:54:42;;;;;;;2.40;1.20;;;;;;;12.71;78.88;96355.38;4991957;28;20213;-58
2022/12/22 11:57:15;;;;;;;2.90;1.30;;;;;;;12.57;79.75;96340.09;4994174;28;20197;-65
2022/12/22 11:59:49;;;;;;;4.20;1.37;;;;;;;12.61;80.64;96338.78;4994257;28;20308;-58
2022/12/22 12:02:27;;;;;;;3.93;1.57;;;;;;;12.61;81.18;96371.41;4994273;28;20201;-58
2022/12/22 12:05:24;;;;;;;4.83;1.67;;;;;;;12.48;83.07;96345.34;4995065;28;20189;-57
2022/12/22 12:07:55;;;;;;;3.70;1.43;;;;;;;12.42;84.26;96358.44;4997571;28;20204;-58
2022/12/22 12:10:25;;;;;;;4.17;1.57;;;;;;;12.47;84.58;96353.47;5015108;28;20236;-57
2022/12/22 12:12:56;;;;;;;4.73;1.40;;;;;;;12.56;83.99;96357.81;5016793;28;20189;-58
2022/12/22 12:15:30;;;;;;;5.27;1.70;;;;;;;12.55;84.67;96356.16;5004997;28;20205;-59
2022/12/22 12:18:14;;;;;;;2.73;1.40;;;;;;;12.69;84.88;96352.88;4994375;28;20193;-57
2022/12/22 12:20:53;;;;;;;4.70;1.77;;;;;;;12.70;84.86;96359.84;4994206;28;20189;-58
2022/12/22 12:23:35;;;;;;;7.10;1.87;;;;;;;12.72;83.46;96365.78;4993838;28;20193;-58
2022/12/22 12:26:06;;;;;;;3.57;1.40;;;;;;;12.79;84.61;96371.28;4993901;28;20539;-58
2022/12/22 12:28:42;;;;;;;5.37;1.87;;;;;;;12.78;84.78;96370.47;4994209;28;20605;-58
2022/12/22 12:31:13;;;;;;;4.23;1.30;;;;;;;12.69;85.25;96363.47;4995331;28;20201;-58
2022/12/22 12:33:44;;;;;;;3.53;1.57;;;;;;;12.70;83.74;96365.16;4997167;28;20213;-58
2022/12/22 12:36:14;;;;;;;2.87;1.37;;;;;;;12.75;83.01;96370.78;5000485;28;20206;-58
2022/12/22 12:38:47;;;;;;;2.80;1.50;;;;;;;12.81;82.70;96383.41;5010594;28;20201;-57
2022/12/22 12:41:22;;;;;;;5.80;1.63;;;;;;;12.85;82.82;96384.75;5017775;28;20197;-58
2022/12/22 12:43:48;;;;;;;4.67;1.57;;;;;;;13.01;83.49;96396.38;4998921;28;20377;-60
2022/12/22 12:46:45;;;;;;;2.97;1.47;;;;;;;13.13;81.02;96397.75;4993487;28;20224;-58
2022/12/22 12:49:49;;;;;;;6.50;1.70;;;;;;;13.16;82.55;96398.25;4999453;28;20220;-58
2022/12/22 12:52:15;;;;;;;3.83;1.77;;;;;;;13.13;81.84;96389.78;4993346;28;20216;-58
2022/12/22 12:54:42;;;;;;;2.53;1.20;;;;;;;13.13;82.73;96397.75;4992434;28;20205;-58
2022/12/22 12:57:33;;;;;;;3.20;1.23;;;;;;;12.98;82.15;96389.56;4992798;28;20201;-57
2022/12/22 13:00:00;;;;;;;4.17;1.80;;;;;;;12.88;83.51;96394.19;4972472;28;20653;-58
2022/12/22 13:02:40;;;;;;;1.90;1.20;;;;;;;12.81;84.38;96415.25;4992293;28;20638;-59
2022/12/22 13:05:28;;;;;;;5.03;1.63;;;;;;;12.58;87.07;96430.09;4992565;28;20231;-59
2022/12/22 13:08:13;;;;;;;3.17;1.40;;;;;;;12.48;89.26;96429.41;4992590;28;20598;-59
2022/12/22 13:10:45;;;;;;;3.70;1.60;;;;;;;12.39;91.34;96433.03;4991840;28;20212;-58
2022/12/22 13:13:13;;;;;;;2.00;0.90;;;;;;;12.20;91.98;96431.44;4992171;28;20304;-59
2022/12/22 13:15:43;;;;;;;2.10;1.30;;;;;;;12.12;92.69;96417.28;4991917;28;20213;-58
2022/12/22 13:18:40;;;;;;;5.33;1.70;;;;;;;12.13;92.81;96416.31;4992240;28;20197;-58
2022/12/22 13:21:08;;;;;;;2.50;0.90;;;;;;;12.14;93.67;96420.63;4991547;28;20648;-59
2022/12/22 13:23:37;;;;;;;3.33;1.37;;;;;;;12.14;94.17;96425.94;4991730;28;20201;-58
2022/12/22 13:26:07;;;;;;;5.03;1.70;;;;;;;12.13;93.76;96421.59;4991499;28;20205;-58
2022/12/22 13:28:35;;;;;;;4.13;1.37;;;;;;;11.98;94.16;96408.94;4991770;28;20216;-59
2022/12/22 13:31:04;;;;;;;2.53;1.33;;;;;;;12.12;93.55;96426.06;4991985;28;20209;-58
2022/12/22 13:33:38;;;;;;;3.50;1.20;;;;;;;12.23;92.51;96436.41;4991687;28;20197;-58
2022/12/22 13:36:05;;;;;;;2.77;1.00;;;;;;;12.16;92.99;96423.94;4991662;28;20672;-58
2022/12/22 13:38:33;;;;;;;4.33;1.77;;;;;;;12.10;93.64;96445.78;4991915;28;20209;-58
2022/12/22 13:41:00;;;;;;;5.83;1.70;;;;;;;12.06;93.93;96428.53;4991331;28;20542;-57
2022/12/22 13:43:28;;;;;;;3.53;1.50;;;;;;;12.00;93.34;96430.00;4991433;28;20236;-58
2022/12/22 13:45:56;;;;;;;3.07;1.50;;;;;;;11.97;93.88;96441.72;4991649;28;20209;-58
2022/12/22 13:48:27;;;;;;;4.27;1.53;;;;;;;12.03;93.76;96439.44;4992219;28;20202;-58
2022/12/22 13:50:57;;;;;;;6.40;1.50;;;;;;;11.95;93.77;96438.41;4995421;28;20204;-58
2022/12/22 13:53:30;;;;;;;3.93;1.40;;;;;;;11.84;94.79;96425.41;4995881;28;20193;-59
2022/12/22 13:55:57;;;;;;;3.77;1.60;;;;;;;11.88;94.65;96437.38;4995454;28;20194;-59
2022/12/22 13:58:27;;;;;;;2.93;1.40;;;;;;;11.81;95.06;96425.75;4995910;28;20205;-59
2022/12/22 14:01:04;;;;;;;6.67;1.17;;;;;;;11.80;94.61;96426.72;4995862;28;20561;-59
2022/12/22 14:03:31;;;;;;;3.37;1.30;;;;;;;11.93;93.42;96440.41;5018639;28;20177;-57
2022/12/22 14:05:59;;;;;;;3.23;1.07;;;;;;;11.97;92.26;96430.31;5018151;28;20211;-59
2022/12/22 14:08:25;;;;;;;2.20;1.30;;;;;;;11.91;92.64;96431.75;5016181;28;20196;-59
2022/12/22 14:10:53;;;;;;;5.63;1.60;;;;;;;12.01;90.67;96436.13;4997681;28;20236;-58
2022/12/22 14:13:22;;;;;;;6.67;1.50;;;;;;;11.96;90.87;96421.53;4998340;28;20587;-59
2022/12/22 14:15:59;;;;;;;2.87;1.20;;;;;;;12.01;90.97;96425.53;4997339;28;20202;-58
2022/12/22 14:18:26;;;;;;;4.77;1.60;;;;;;;11.98;91.15;96426.66;4995232;28;20202;-59
2022/12/22 14:20:53;;;;;;;3.93;1.73;;;;;;;11.95;91.98;96427.81;4994840;28;20209;-58
2022/12/22 14:23:23;;;;;;;1.93;1.33;;;;;;;11.98;90.56;96426.66;4995226;28;20201;-57
2022/12/22 14:25:50;;;;;;;5.83;1.50;;;;;;;11.97;90.49;96431.13;4995064;28;20213;-58
2022/12/22 14:28:20;;;;;;;4.37;1.30;;;;;;;11.95;90.74;96433.13;4995270;28;20209;-58
2022/12/22 14:30:49;;;;;;;3.43;1.37;;;;;;;11.88;90.89;96426.78;5000915;28;20221;-58
2022/12/22 14:33:27;;;;;;;5.83;1.93;;;;;;;11.93;90.25;96434.28;5000984;28;20205;-59
2022/12/22 14:36:13;;;;;;;2.93;1.40;;;;;;;11.89;90.48;96435.56;5001336;28;20228;-58
2022/12/22 14:38:43;;;;;;;4.97;1.67;;;;;;;11.91;89.65;96431.75;4994852;28;20200;-57
2022/12/22 14:41:39;;;;;;;4.77;2.17;;;;;;;11.84;89.85;96422.78;4994906;28;20193;-58
2022/12/22 14:43:58;;;;;;;3.00;1.40;;;;;;;11.87;89.97;96426.91;4994512;28;20375;-59
2022/12/22 14:46:25;;;;;;;5.30;1.40;;;;;;;11.80;90.70;96428.53;4994974;28;20213;-58
2022/12/22 14:48:51;;;;;;;4.27;1.33;;;;;;;11.84;89.78;96417.47;4994938;28;20232;-58
2022/12/22 14:51:18;;;;;;;4.50;1.47;;;;;;;11.93;86.87;96435.09;4994856;28;20335;-58
2022/12/22 14:53:48;;;;;;;2.63;1.20;;;;;;;11.95;87.02;96430.47;4994373;28;20308;-58
2022/12/22 14:56:16;;;;;;;4.33;1.40;;;;;;;11.88;87.31;96421.47;4994598;28;20212;-59
2022/12/22 14:58:43;;;;;;;3.50;1.03;;;;;;;11.91;87.52;96425.63;4994830;28;20209;-59
2022/12/22 15:01:20;;;;;;;3.67;1.47;;;;;;;12.02;85.29;96433.31;4993583;28;20205;-59
2022/12/22 15:03:59;;;;;;;5.23;1.27;;;;;;;12.00;85.36;96423.88;4994116;28;20197;-57
2022/12/22 15:06:35;;;;;;;4.17;1.77;;;;;;;11.97;86.21;96420.53;4994771;28;20208;-58
2022/12/22 15:09:26;;;;;;;3.10;1.00;;;;;;;12.00;84.79;96414.09;4994497;28;20200;-58
2022/12/22 15:11:54;;;;;;;5.70;1.70;;;;;;;11.97;86.06;96423.16;4994160;28;20645;-58
2022/12/22 15:14:23;;;;;;;4.37;1.33;;;;;;;11.94;85.13;96418.19;4994409;28;20212;-59
2022/12/22 15:16:50;;;;;;;2.93;1.57;;;;;;;12.02;84.39;96411.28;4993930;28;20202;-58
2022/12/22 15:19:19;;;;;;;2.67;1.23;;;;;;;12.18;82.64;96420.16;4994778;28;20516;-58
2022/12/22 15:21:46;;;;;;;7.00;1.70;;;;;;;12.06;83.40;96408.16;4994314;28;20212;-58
2022/12/22 15:24:14;;;;;;;3.60;1.83;;;;;;;12.15;82.84;96422.31;4994230;28;20220;-59
2022/12/22 15:26:43;;;;;;;3.43;1.37;;;;;;;12.17;82.54;96401.75;4993975;28;20205;-58
2022/12/22 15:29:09;;;;;;;3.97;1.80;;;;;;;12.11;83.35;96415.66;4993871;28;20665;-58